Back to Top

Language: 

My Weather Underground Personal Weather Station Historical Data with Graphs...

Delerius Weather Station Historical Data
Daily Summary for November 18, 2017 Units:  English    Metric   Both
« Previous Day
Next Day »
Daily Weekly Monthly Yearly Custom
  High: Low: Average:
Temperature: 48.7 °F 37.9 °F 44.4 °F
Dew Point: 43.0 °F 32.6 °F 39 °F
Humidity: 88 % 68 % 81 %
Wind Speed: 18.0 mph 0.0 mph 8.3 mph
Wind Gust: 28.0 mph - -
Wind:- - WNW
Pressure: 30.18 in 30.09 in -
Precipitation: 0.00 in    
Historical Graphs
 
 
Tabular Data for November 18, 2017
Time Temperature Dew Point Pressure Wind Wind Speed Wind Gust Humidity Rainfall Rate (Hourly) solar Conditions
00:02 42.6 °F 38.4 °F 30.18 in WNW 15.0 mph 21.0 mph 85 % 0.00 in 0 W/m2
00:07 42.6 °F 38.4 °F 30.18 in West 14.0 mph 22.0 mph 85 % 0.00 in 0 W/m2
00:12 42.6 °F 38.4 °F 30.18 in WNW 15.0 mph 23.0 mph 85 % 0.00 in 0 W/m2
00:17 42.6 °F 38.4 °F 30.18 in West 16.0 mph 28.0 mph 85 % 0.00 in 0 W/m2
00:22 42.8 °F 38.6 °F 30.18 in WNW 17.0 mph 24.0 mph 85 % 0.00 in 0 W/m2
00:27 42.8 °F 38.3 °F 30.17 in West 15.0 mph 24.0 mph 84 % 0.00 in 0 W/m2
00:32 43.0 °F 38.5 °F 30.17 in West 15.0 mph 24.0 mph 84 % 0.00 in 0 W/m2
00:37 43.0 °F 38.5 °F 30.17 in West 18.0 mph 27.0 mph 84 % 0.00 in 0 W/m2
00:42 43.2 °F 38.7 °F 30.16 in West 15.0 mph 22.0 mph 84 % 0.00 in 0 W/m2
00:47 43.2 °F 38.7 °F 30.17 in West 15.0 mph 23.0 mph 84 % 0.00 in 0 W/m2
00:52 43.2 °F 38.7 °F 30.16 in West 16.0 mph 26.0 mph 84 % 0.00 in 0 W/m2
00:57 43.2 °F 38.7 °F 30.16 in West 16.0 mph 25.0 mph 84 % 0.00 in 0 W/m2
01:02 43.3 °F 38.8 °F 30.16 in West 14.0 mph 23.0 mph 84 % 0.00 in 0 W/m2
01:07 43.2 °F 38.7 °F 30.17 in West 15.0 mph 25.0 mph 84 % 0.00 in 0 W/m2
01:12 43.2 °F 38.7 °F 30.17 in West 15.0 mph 22.0 mph 84 % 0.00 in 0 W/m2
01:17 43.2 °F 38.7 °F 30.16 in West 15.0 mph 24.0 mph 84 % 0.00 in 0 W/m2
01:22 43.0 °F 38.5 °F 30.16 in West 14.0 mph 22.0 mph 84 % 0.00 in 0 W/m2
01:27 43.0 °F 38.5 °F 30.16 in WNW 15.0 mph 24.0 mph 84 % 0.00 in 0 W/m2
01:32 43.0 °F 38.5 °F 30.16 in West 14.0 mph 23.0 mph 84 % 0.00 in 0 W/m2
01:37 43.0 °F 38.8 °F 30.16 in West 13.0 mph 20.0 mph 85 % 0.00 in 0 W/m2
01:42 43.0 °F 38.8 °F 30.16 in West 12.0 mph 19.0 mph 85 % 0.00 in 0 W/m2
01:47 43.0 °F 38.8 °F 30.16 in West 12.0 mph 16.0 mph 85 % 0.00 in 0 W/m2
01:52 43.0 °F 38.8 °F 30.16 in West 10.0 mph 18.0 mph 85 % 0.00 in 0 W/m2
01:57 43.0 °F 38.8 °F 30.16 in West 14.0 mph 27.0 mph 85 % 0.00 in 0 W/m2
02:02 43.0 °F 38.8 °F 30.16 in West 13.0 mph 22.0 mph 85 % 0.00 in 0 W/m2
02:07 43.0 °F 38.8 °F 30.16 in WNW 14.0 mph 24.0 mph 85 % 0.00 in 0 W/m2
02:12 42.8 °F 38.6 °F 30.15 in West 14.0 mph 25.0 mph 85 % 0.00 in 0 W/m2
02:17 43.0 °F 38.8 °F 30.15 in West 15.0 mph 22.0 mph 85 % 0.00 in 0 W/m2
02:18 43.0 °F 38.8 °F 30.15 in West 15.0 mph 22.0 mph 85 % 0.00 in 0 W/m2
02:23 43.2 °F 39.3 °F 30.15 in West 16.0 mph 25.0 mph 86 % 0.00 in 0 W/m2
02:28 43.3 °F 39.1 °F 30.15 in West 14.0 mph 21.0 mph 85 % 0.00 in 0 W/m2
02:33 43.7 °F 39.5 °F 30.15 in West 16.0 mph 23.0 mph 85 % 0.00 in 0 W/m2
02:38 43.9 °F 39.7 °F 30.14 in West 14.0 mph 25.0 mph 85 % 0.00 in 0 W/m2
02:43 43.9 °F 39.4 °F 30.14 in West 15.0 mph 24.0 mph 84 % 0.00 in 0 W/m2
02:48 43.9 °F 39.4 °F 30.14 in West 16.0 mph 23.0 mph 84 % 0.00 in 0 W/m2
02:53 44.1 °F 39.5 °F 30.14 in West 16.0 mph 26.0 mph 84 % 0.00 in 0 W/m2
02:58 44.1 °F 39.5 °F 30.14 in West 14.0 mph 24.0 mph 84 % 0.00 in 0 W/m2
03:03 44.1 °F 39.2 °F 30.14 in West 16.0 mph 25.0 mph 83 % 0.00 in 0 W/m2
03:08 44.2 °F 39.4 °F 30.14 in West 12.0 mph 21.0 mph 83 % 0.00 in 0 W/m2
03:13 44.2 °F 39.4 °F 30.14 in West 13.0 mph 21.0 mph 83 % 0.00 in 0 W/m2
03:20 44.2 °F 39.7 °F 30.13 in West 14.0 mph 22.0 mph 84 % 0.00 in 0 W/m2
03:22 44.2 °F 39.7 °F 30.13 in West 13.0 mph 20.0 mph 84 % 0.00 in 0 W/m2
03:24 44.2 °F 39.7 °F 30.13 in West 12.0 mph 21.0 mph 84 % 0.00 in 0 W/m2
03:26 44.1 °F 39.5 °F 30.13 in West 14.0 mph 24.0 mph 84 % 0.00 in 0 W/m2
03:31 44.2 °F 39.7 °F 30.13 in West 15.0 mph 26.0 mph 84 % 0.00 in 0 W/m2
03:36 44.2 °F 39.7 °F 30.13 in West 13.0 mph 19.0 mph 84 % 0.00 in 0 W/m2
03:46 44.2 °F 40.0 °F 30.13 in West 11.0 mph 19.0 mph 85 % 0.00 in 0 W/m2
03:51 44.2 °F 40.0 °F 30.13 in West 11.0 mph 19.0 mph 85 % 0.00 in 0 W/m2
03:56 44.2 °F 40.0 °F 30.13 in West 10.0 mph 14.0 mph 85 % 0.00 in 0 W/m2
04:01 44.2 °F 40.0 °F 30.13 in West 14.0 mph 22.0 mph 85 % 0.00 in 0 W/m2
04:06 44.4 °F 40.2 °F 30.13 in West 11.0 mph 15.0 mph 85 % 0.00 in 0 W/m2
04:11 44.4 °F 40.2 °F 30.13 in West 12.0 mph 18.0 mph 85 % 0.00 in 0 W/m2
04:16 44.6 °F 40.4 °F 30.13 in West 14.0 mph 24.0 mph 85 % 0.00 in 0 W/m2
04:21 44.8 °F 40.2 °F 30.13 in West 12.0 mph 19.0 mph 84 % 0.00 in 0 W/m2
04:26 45.0 °F 40.4 °F 30.12 in WSW 12.0 mph 22.0 mph 84 % 0.00 in 0 W/m2
04:31 45.0 °F 40.4 °F 30.12 in WSW 13.0 mph 20.0 mph 84 % 0.00 in 0 W/m2
04:34 45.0 °F 40.4 °F 30.12 in WSW 11.0 mph 16.0 mph 84 % 0.00 in 0 W/m2
04:39 45.0 °F 40.4 °F 30.12 in WSW 11.0 mph 15.0 mph 84 % 0.00 in 0 W/m2
04:44 45.0 °F 40.4 °F 30.12 in WSW 11.0 mph 16.0 mph 84 % 0.00 in 0 W/m2
04:49 45.1 °F 40.6 °F 30.12 in WSW 12.0 mph 19.0 mph 84 % 0.00 in 0 W/m2
04:54 45.1 °F 40.6 °F 30.12 in WSW 9.0 mph 14.0 mph 84 % 0.00 in 0 W/m2
04:59 45.1 °F 40.6 °F 30.12 in WSW 12.0 mph 19.0 mph 84 % 0.00 in 0 W/m2
05:04 45.1 °F 40.6 °F 30.12 in WSW 7.0 mph 13.0 mph 84 % 0.00 in 0 W/m2
05:09 45.3 °F 40.8 °F 30.11 in WSW 6.0 mph 10.0 mph 84 % 0.00 in 0 W/m2
05:15 45.3 °F 40.8 °F 30.11 in WSW 8.0 mph 11.0 mph 84 % 0.00 in 0 W/m2
05:20 45.3 °F 40.8 °F 30.11 in SW 8.0 mph 12.0 mph 84 % 0.00 in 0 W/m2
05:25 45.3 °F 40.8 °F 30.11 in WSW 8.0 mph 12.0 mph 84 % 0.00 in 0 W/m2
05:30 45.3 °F 40.8 °F 30.11 in WSW 9.0 mph 14.0 mph 84 % 0.00 in 0 W/m2
05:35 45.5 °F 41.3 °F 30.11 in West 8.0 mph 15.0 mph 85 % 0.00 in 0 W/m2
05:40 45.7 °F 41.4 °F 30.11 in West 5.0 mph 11.0 mph 85 % 0.00 in 0 W/m2
05:45 45.5 °F 41.3 °F 30.11 in West 5.0 mph 10.0 mph 85 % 0.00 in 0 W/m2
05:50 45.7 °F 41.4 °F 30.11 in West 6.0 mph 8.0 mph 85 % 0.00 in 0 W/m2
05:55 45.5 °F 41.6 °F 30.11 in WSW 7.0 mph 11.0 mph 86 % 0.00 in 0 W/m2
06:00 45.5 °F 41.6 °F 30.10 in WSW 7.0 mph 13.0 mph 86 % 0.00 in 0 W/m2
06:05 45.5 °F 41.6 °F 30.10 in West 7.0 mph 11.0 mph 86 % 0.00 in 0 W/m2
06:10 45.3 °F 41.4 °F 30.10 in West 4.0 mph 9.0 mph 86 % 0.00 in 0 W/m2
06:15 45.3 °F 41.4 °F 30.11 in West 6.0 mph 10.0 mph 86 % 0.00 in 0 W/m2
06:20 45.5 °F 41.3 °F 30.10 in WNW 9.0 mph 13.0 mph 85 % 0.00 in 0 W/m2
06:25 45.7 °F 41.4 °F 30.10 in West 6.0 mph 12.0 mph 85 % 0.00 in 0 W/m2
06:30 45.9 °F 41.3 °F 30.11 in West 9.0 mph 16.0 mph 84 % 0.00 in 0 W/m2
06:35 45.9 °F 41.3 °F 30.10 in West 7.0 mph 9.0 mph 84 % 0.00 in 0 W/m2
06:40 46.0 °F 41.5 °F 30.10 in West 7.0 mph 14.0 mph 84 % 0.00 in 0 W/m2
06:45 46.0 °F 41.5 °F 30.10 in West 6.0 mph 13.0 mph 84 % 0.00 in 0 W/m2
06:50 46.0 °F 41.2 °F 30.11 in West 11.0 mph 20.0 mph 83 % 0.00 in 0 W/m2
06:55 46.2 °F 41.3 °F 30.11 in West 11.0 mph 21.0 mph 83 % 0.00 in 0 W/m2
07:00 46.4 °F 41.5 °F 30.11 in WNW 10.0 mph 16.0 mph 83 % 0.00 in 0 W/m2
07:05 46.4 °F 41.5 °F 30.11 in West 10.0 mph 15.0 mph 83 % 0.00 in 0 W/m2
07:10 46.4 °F 41.5 °F 30.11 in WNW 10.0 mph 14.0 mph 83 % 0.00 in 0 W/m2
07:15 46.4 °F 41.5 °F 30.11 in WNW 9.0 mph 12.0 mph 83 % 0.00 in 0 W/m2
07:20 46.2 °F 41.3 °F 30.11 in WNW 13.0 mph 20.0 mph 83 % 0.00 in 0 W/m2
07:25 46.2 °F 41.3 °F 30.11 in WNW 9.0 mph 13.0 mph 83 % 0.00 in 0 W/m2
07:30 46.2 °F 41.3 °F 30.11 in West 10.0 mph 13.0 mph 83 % 0.00 in 0 W/m2
07:35 46.0 °F 41.2 °F 30.11 in West 8.0 mph 16.0 mph 83 % 0.00 in 0 W/m2
07:40 46.0 °F 41.2 °F 30.11 in WNW 10.0 mph 13.0 mph 83 % 0.00 in 5 W/m2
07:45 46.0 °F 41.2 °F 30.11 in WNW 10.0 mph 15.0 mph 83 % 0.00 in 5 W/m2
07:50 46.0 °F 41.5 °F 30.11 in West 9.0 mph 14.0 mph 84 % 0.00 in 7 W/m2
07:55 46.0 °F 41.5 °F 30.11 in WNW 9.0 mph 14.0 mph 84 % 0.00 in 9 W/m2
08:00 46.0 °F 41.5 °F 30.11 in West 11.0 mph 16.0 mph 84 % 0.00 in 12 W/m2
08:05 45.9 °F 41.3 °F 30.11 in West 8.0 mph 11.0 mph 84 % 0.00 in 19 W/m2
08:10 45.7 °F 41.1 °F 30.11 in West 9.0 mph 12.0 mph 84 % 0.00 in 33 W/m2
08:15 45.7 °F 41.1 °F 30.12 in WNW 8.0 mph 12.0 mph 84 % 0.00 in 37 W/m2
08:20 45.7 °F 41.1 °F 30.11 in WNW 11.0 mph 15.0 mph 84 % 0.00 in 40 W/m2
08:25 45.9 °F 41.3 °F 30.11 in WNW 8.0 mph 11.0 mph 84 % 0.00 in 23 W/m2
08:30 45.9 °F 41.3 °F 30.11 in West 8.0 mph 11.0 mph 84 % 0.00 in 51 W/m2
08:35 46.0 °F 41.5 °F 30.11 in West 8.0 mph 15.0 mph 84 % 0.00 in 37 W/m2
08:40 46.0 °F 41.2 °F 30.11 in WNW 8.0 mph 13.0 mph 83 % 0.00 in 25 W/m2
08:45 46.0 °F 41.2 °F 30.11 in West 10.0 mph 16.0 mph 83 % 0.00 in 32 W/m2
08:50 46.0 °F 41.2 °F 30.11 in West 9.0 mph 15.0 mph 83 % 0.00 in 33 W/m2
08:55 46.2 °F 41.3 °F 30.11 in West 11.0 mph 19.0 mph 83 % 0.00 in 40 W/m2
09:00 46.4 °F 41.2 °F 30.11 in West 10.0 mph 19.0 mph 82 % 0.00 in 47 W/m2
09:05 46.8 °F 41.6 °F 30.12 in WNW 10.0 mph 18.0 mph 82 % 0.00 in 160 W/m2
09:10 46.9 °F 41.4 °F 30.12 in WNW 8.0 mph 15.0 mph 81 % 0.00 in 163 W/m2
09:15 47.3 °F 41.8 °F 30.12 in WNW 9.0 mph 12.0 mph 81 % 0.00 in 197 W/m2
09:20 47.7 °F 41.8 °F 30.12 in West 8.0 mph 16.0 mph 80 % 0.00 in 114 W/m2
09:25 47.8 °F 41.6 °F 30.12 in West 8.0 mph 13.0 mph 79 % 0.00 in 88 W/m2
09:30 47.8 °F 41.6 °F 30.12 in WNW 10.0 mph 13.0 mph 79 % 0.00 in 281 W/m2
09:35 48.2 °F 42.0 °F 30.12 in West 9.0 mph 18.0 mph 79 % 0.00 in 214 W/m2
09:40 48.4 °F 41.5 °F 30.12 in West 10.0 mph 16.0 mph 77 % 0.00 in 39 W/m2
09:45 48.4 °F 41.5 °F 30.12 in West 7.0 mph 12.0 mph 77 % 0.00 in 62 W/m2
09:50 48.2 °F 41.3 °F 30.12 in WNW 12.0 mph 20.0 mph 77 % 0.00 in 69 W/m2
09:55 48.0 °F 41.2 °F 30.12 in West 8.0 mph 13.0 mph 77 % 0.00 in 93 W/m2
09:56 48.0 °F 41.2 °F 30.12 in West 9.0 mph 13.0 mph 77 % 0.00 in 79 W/m2
10:01 48.0 °F 41.5 °F 30.12 in West 8.0 mph 13.0 mph 78 % 0.00 in 42 W/m2
10:06 47.8 °F 41.0 °F 30.12 in West 8.0 mph 13.0 mph 77 % 0.00 in 40 W/m2
10:11 47.8 °F 41.3 °F 30.12 in WNW 9.0 mph 13.0 mph 78 % 0.00 in 39 W/m2
10:16 47.8 °F 41.3 °F 30.12 in WNW 7.0 mph 14.0 mph 78 % 0.00 in 60 W/m2
10:21 47.8 °F 41.3 °F 30.12 in WNW 5.0 mph 7.0 mph 78 % 0.00 in 35 W/m2
10:26 47.8 °F 41.3 °F 30.12 in WNW 9.0 mph 15.0 mph 78 % 0.00 in 32 W/m2
10:31 47.8 °F 41.3 °F 30.12 in WNW 9.0 mph 13.0 mph 78 % 0.00 in 30 W/m2
10:36 47.8 °F 41.3 °F 30.12 in NW 8.0 mph 16.0 mph 78 % 0.00 in 30 W/m2
10:41 47.8 °F 41.6 °F 30.11 in WNW 9.0 mph 13.0 mph 79 % 0.00 in 51 W/m2
10:46 47.7 °F 41.5 °F 30.11 in WNW 7.0 mph 11.0 mph 79 % 0.00 in 84 W/m2
10:51 47.8 °F 42.0 °F 30.11 in WNW 8.0 mph 12.0 mph 80 % 0.00 in 67 W/m2
10:56 47.8 °F 41.6 °F 30.11 in WNW 8.0 mph 13.0 mph 79 % 0.00 in 35 W/m2
11:01 47.8 °F 42.0 °F 30.12 in WNW 6.0 mph 9.0 mph 80 % 0.00 in 32 W/m2
11:06 47.8 °F 42.0 °F 30.12 in WNW 9.0 mph 16.0 mph 80 % 0.00 in 60 W/m2
11:11 47.7 °F 42.4 °F 30.11 in WNW 10.0 mph 16.0 mph 82 % 0.00 in 111 W/m2
11:16 47.5 °F 42.6 °F 30.11 in WNW 8.0 mph 11.0 mph 83 % 0.00 in 151 W/m2
11:21 47.5 °F 42.6 °F 30.11 in WNW 9.0 mph 15.0 mph 83 % 0.00 in 134 W/m2
11:27 47.7 °F 42.8 °F 30.11 in WNW 10.0 mph 14.0 mph 83 % 0.00 in 144 W/m2
11:31 47.8 °F 42.9 °F 30.11 in WNW 10.0 mph 14.0 mph 83 % 0.00 in 121 W/m2
11:37 47.8 °F 42.6 °F 30.10 in WNW 10.0 mph 15.0 mph 82 % 0.00 in 132 W/m2
11:42 47.8 °F 42.3 °F 30.10 in WNW 10.0 mph 18.0 mph 81 % 0.00 in 142 W/m2
11:47 48.0 °F 42.1 °F 30.10 in WNW 11.0 mph 15.0 mph 80 % 0.00 in 77 W/m2
11:52 48.0 °F 42.1 °F 30.10 in WNW 10.0 mph 15.0 mph 80 % 0.00 in 58 W/m2
11:57 48.0 °F 42.1 °F 30.10 in WNW 10.0 mph 20.0 mph 80 % 0.00 in 49 W/m2
12:02 47.8 °F 42.0 °F 30.10 in WNW 11.0 mph 18.0 mph 80 % 0.00 in 62 W/m2
12:07 47.8 °F 42.0 °F 30.10 in WNW 11.0 mph 21.0 mph 80 % 0.00 in 49 W/m2
12:12 47.7 °F 42.4 °F 30.11 in NW 10.0 mph 16.0 mph 82 % 0.00 in 67 W/m2
12:17 47.5 °F 42.6 °F 30.10 in WNW 10.0 mph 19.0 mph 83 % 0.00 in 104 W/m2
12:22 47.1 °F 42.5 °F 30.10 in WNW 10.0 mph 14.0 mph 84 % 0.00 in 125 W/m2
12:27 46.9 °F 42.7 °F 30.11 in WNW 9.0 mph 13.0 mph 85 % 0.00 in 86 W/m2
12:32 46.9 °F 42.7 °F 30.10 in WNW 9.0 mph 12.0 mph 85 % 0.00 in 127 W/m2
12:37 46.9 °F 42.7 °F 30.10 in WNW 9.0 mph 13.0 mph 85 % 0.00 in 109 W/m2
12:42 46.9 °F 42.7 °F 30.10 in WNW 11.0 mph 18.0 mph 85 % 0.00 in 176 W/m2
12:47 47.3 °F 43.0 °F 30.10 in WNW 9.0 mph 13.0 mph 85 % 0.00 in 163 W/m2
12:52 47.5 °F 42.9 °F 30.10 in NW 8.0 mph 13.0 mph 84 % 0.00 in 90 W/m2
12:57 47.7 °F 42.8 °F 30.10 in WNW 9.0 mph 15.0 mph 83 % 0.00 in 77 W/m2
13:02 47.7 °F 42.1 °F 30.10 in WNW 9.0 mph 14.0 mph 81 % 0.00 in 74 W/m2
13:07 47.7 °F 41.5 °F 30.10 in NW 11.0 mph 20.0 mph 79 % 0.00 in 81 W/m2
13:12 47.7 °F 41.5 °F 30.10 in WNW 8.0 mph 13.0 mph 79 % 0.00 in 98 W/m2
13:17 47.8 °F 41.3 °F 30.10 in NW 9.0 mph 16.0 mph 78 % 0.00 in 123 W/m2
13:22 47.8 °F 41.0 °F 30.10 in WNW 9.0 mph 16.0 mph 77 % 0.00 in 130 W/m2
13:27 48.0 °F 41.2 °F 30.10 in NW 8.0 mph 14.0 mph 77 % 0.00 in 93 W/m2
13:32 48.0 °F 40.8 °F 30.10 in NW 11.0 mph 19.0 mph 76 % 0.00 in 86 W/m2
13:37 48.0 °F 40.8 °F 30.10 in NW 10.0 mph 18.0 mph 76 % 0.00 in 102 W/m2
13:42 48.0 °F 40.5 °F 30.10 in WNW 10.0 mph 16.0 mph 75 % 0.00 in 102 W/m2
13:47 47.8 °F 40.6 °F 30.10 in NW 8.0 mph 14.0 mph 76 % 0.00 in 125 W/m2
13:52 48.0 °F 41.2 °F 30.10 in WNW 12.0 mph 20.0 mph 77 % 0.00 in 169 W/m2
13:57 48.2 °F 41.7 °F 30.10 in NW 10.0 mph 19.0 mph 78 % 0.00 in 146 W/m2
14:02 48.4 °F 41.2 °F 30.10 in WNW 9.0 mph 14.0 mph 76 % 0.00 in 264 W/m2
14:07 48.7 °F 41.2 °F 30.10 in WNW 8.0 mph 13.0 mph 75 % 0.00 in 86 W/m2
14:12 48.7 °F 40.8 °F 30.10 in NW 11.0 mph 18.0 mph 74 % 0.00 in 74 W/m2
14:17 48.6 °F 40.3 °F 30.10 in NW 9.0 mph 16.0 mph 73 % 0.00 in 62 W/m2
14:22 48.4 °F 40.1 °F 30.10 in NW 9.0 mph 14.0 mph 73 % 0.00 in 58 W/m2
14:27 48.2 °F 39.9 °F 30.10 in NW 9.0 mph 15.0 mph 73 % 0.00 in 54 W/m2
14:32 48.0 °F 39.4 °F 30.10 in NW 9.0 mph 15.0 mph 72 % 0.00 in 47 W/m2
14:37 47.8 °F 39.2 °F 30.10 in WNW 8.0 mph 16.0 mph 72 % 0.00 in 44 W/m2
14:42 47.7 °F 39.1 °F 30.10 in NW 7.0 mph 12.0 mph 72 % 0.00 in 44 W/m2
14:47 47.7 °F 39.4 °F 30.10 in WNW 7.0 mph 11.0 mph 73 % 0.00 in 37 W/m2
14:52 47.5 °F 39.3 °F 30.10 in NW 8.0 mph 15.0 mph 73 % 0.00 in 32 W/m2
14:57 47.5 °F 38.9 °F 30.10 in NW 8.0 mph 11.0 mph 72 % 0.00 in 33 W/m2
15:02 47.3 °F 38.4 °F 30.10 in NW 6.0 mph 11.0 mph 71 % 0.00 in 33 W/m2
15:07 47.3 °F 38.0 °F 30.10 in WNW 9.0 mph 15.0 mph 70 % 0.00 in 33 W/m2
15:12 47.1 °F 37.5 °F 30.10 in NW 7.0 mph 12.0 mph 69 % 0.00 in 28 W/m2
15:17 47.1 °F 37.5 °F 30.10 in NW 8.0 mph 12.0 mph 69 % 0.00 in 26 W/m2
15:22 46.9 °F 36.9 °F 30.10 in NW 8.0 mph 15.0 mph 68 % 0.00 in 19 W/m2
15:27 46.9 °F 36.9 °F 30.10 in NW 9.0 mph 16.0 mph 68 % 0.00 in 19 W/m2
15:33 46.9 °F 37.3 °F 30.10 in NW 5.0 mph 10.0 mph 69 % 0.00 in 16 W/m2
15:38 46.9 °F 37.3 °F 30.10 in NW 9.0 mph 14.0 mph 69 % 0.00 in 11 W/m2
15:43 46.8 °F 37.5 °F 30.10 in WNW 6.0 mph 10.0 mph 70 % 0.00 in 7 W/m2
15:48 46.8 °F 37.5 °F 30.10 in NW 7.0 mph 11.0 mph 70 % 0.00 in 5 W/m2
15:53 46.6 °F 37.7 °F 30.09 in NW 6.0 mph 10.0 mph 71 % 0.00 in 5 W/m2
15:58 46.4 °F 37.5 °F 30.10 in NW 6.0 mph 10.0 mph 71 % 0.00 in 0 W/m2
16:03 46.2 °F 37.3 °F 30.09 in NW 6.0 mph 9.0 mph 71 % 0.00 in 0 W/m2
16:08 46.2 °F 37.7 °F 30.09 in WNW 6.0 mph 10.0 mph 72 % 0.00 in 0 W/m2
16:13 46.2 °F 38.0 °F 30.10 in WNW 6.0 mph 10.0 mph 73 % 0.00 in 0 W/m2
16:18 46.0 °F 38.2 °F 30.10 in WNW 6.0 mph 9.0 mph 74 % 0.00 in 0 W/m2
16:23 45.9 °F 38.0 °F 30.09 in WNW 7.0 mph 11.0 mph 74 % 0.00 in 0 W/m2
16:28 45.9 °F 38.0 °F 30.09 in WNW 10.0 mph 20.0 mph 74 % 0.00 in 0 W/m2
16:33 45.7 °F 37.9 °F 30.09 in WNW 7.0 mph 11.0 mph 74 % 0.00 in 0 W/m2
16:38 45.3 °F 37.5 °F 30.09 in WNW 6.0 mph 9.0 mph 74 % 0.00 in 0 W/m2
16:43 45.1 °F 37.7 °F 30.10 in WNW 6.0 mph 8.0 mph 75 % 0.00 in 0 W/m2
16:48 45.0 °F 37.5 °F 30.10 in WNW 6.0 mph 11.0 mph 75 % 0.00 in 0 W/m2
16:53 45.0 °F 37.8 °F 30.10 in WNW 5.0 mph 7.0 mph 76 % 0.00 in 0 W/m2
16:58 45.0 °F 37.8 °F 30.10 in WNW 4.0 mph 7.0 mph 76 % 0.00 in 0 W/m2
17:03 44.8 °F 37.7 °F 30.10 in WNW 4.0 mph 7.0 mph 76 % 0.00 in 0 W/m2
17:08 44.8 °F 37.7 °F 30.10 in WNW 5.0 mph 7.0 mph 76 % 0.00 in 0 W/m2
17:13 44.8 °F 37.7 °F 30.10 in WNW 7.0 mph 9.0 mph 76 % 0.00 in 0 W/m2
17:18 44.6 °F 37.5 °F 30.10 in WNW 9.0 mph 12.0 mph 76 % 0.00 in 0 W/m2
17:23 44.8 °F 37.7 °F 30.10 in WNW 9.0 mph 12.0 mph 76 % 0.00 in 0 W/m2
17:28 44.8 °F 37.3 °F 30.10 in WNW 7.0 mph 9.0 mph 75 % 0.00 in 0 W/m2
17:33 44.8 °F 37.3 °F 30.10 in WNW 7.0 mph 9.0 mph 75 % 0.00 in 0 W/m2
17:38 44.6 °F 37.2 °F 30.10 in WNW 6.0 mph 9.0 mph 75 % 0.00 in 0 W/m2
17:43 44.4 °F 37.0 °F 30.10 in WNW 5.0 mph 11.0 mph 75 % 0.00 in 0 W/m2
17:48 44.4 °F 37.0 °F 30.10 in NNW 3.0 mph 7.0 mph 75 % 0.00 in 0 W/m2
17:53 44.2 °F 36.8 °F 30.11 in NW 5.0 mph 11.0 mph 75 % 0.00 in 0 W/m2
17:58 44.2 °F 36.8 °F 30.11 in NNW 2.0 mph 6.0 mph 75 % 0.00 in 0 W/m2
18:03 44.1 °F 36.6 °F 30.11 in NW 3.0 mph 6.0 mph 75 % 0.00 in 0 W/m2
18:08 43.9 °F 36.8 °F 30.11 in NW 3.0 mph 7.0 mph 76 % 0.00 in 0 W/m2
18:13 43.7 °F 36.6 °F 30.12 in NW 2.0 mph 4.0 mph 76 % 0.00 in 0 W/m2
18:18 43.3 °F 36.6 °F 30.11 in WNW 4.0 mph 9.0 mph 77 % 0.00 in 0 W/m2
18:23 43.3 °F 36.9 °F 30.11 in WNW 5.0 mph 7.0 mph 78 % 0.00 in 0 W/m2
18:28 43.2 °F 36.8 °F 30.11 in WNW 3.0 mph 6.0 mph 78 % 0.00 in 0 W/m2
18:33 42.8 °F 36.4 °F 30.11 in WNW 3.0 mph 6.0 mph 78 % 0.00 in 0 W/m2
18:38 42.4 °F 36.4 °F 30.11 in WNW 3.0 mph 5.0 mph 79 % 0.00 in 0 W/m2
18:43 42.1 °F 36.4 °F 30.11 in WNW 3.0 mph 5.0 mph 80 % 0.00 in 0 W/m2
18:48 41.7 °F 36.3 °F 30.11 in WNW 4.0 mph 7.0 mph 81 % 0.00 in 0 W/m2
18:53 41.5 °F 36.5 °F 30.11 in WNW 2.0 mph 5.0 mph 82 % 0.00 in 0 W/m2
18:58 41.5 °F 36.5 °F 30.11 in WNW 1.0 mph 3.0 mph 82 % 0.00 in 0 W/m2
19:03 41.2 °F 36.1 °F 30.11 in WNW 1.0 mph 3.0 mph 82 % 0.00 in 0 W/m2
19:08 40.8 °F 36.1 °F 30.11 in Calm   2.0 mph 83 % 0.00 in 0 W/m2
19:13 40.6 °F 36.2 °F 30.12 in NNW 2.0 mph 4.0 mph 84 % 0.00 in 0 W/m2
19:18 40.6 °F 36.2 °F 30.12 in NW 2.0 mph 5.0 mph 84 % 0.00 in 0 W/m2
19:23 40.5 °F 36.3 °F 30.12 in NW 1.0 mph 2.0 mph 85 % 0.00 in 0 W/m2
19:28 40.3 °F 36.1 °F 30.12 in NW 2.0 mph 6.0 mph 85 % 0.00 in 0 W/m2
19:33 40.3 °F 36.1 °F 30.12 in Calm   2.0 mph 85 % 0.00 in 0 W/m2
19:38 40.3 °F 36.4 °F 30.11 in Calm     86 % 0.00 in 0 W/m2
19:43 40.1 °F 36.2 °F 30.12 in Calm     86 % 0.00 in 0 W/m2
19:53 39.9 °F 36.1 °F 30.12 in Calm     86 % 0.00 in 0 W/m2
19:58 39.9 °F 36.4 °F 30.12 in West 1.0 mph 4.0 mph 87 % 0.00 in 0 W/m2
20:03 40.1 °F 36.5 °F 30.13 in WNW 1.0 mph 3.0 mph 87 % 0.00 in 0 W/m2
20:08 39.9 °F 36.4 °F 30.13 in Calm   1.0 mph 87 % 0.00 in 0 W/m2
20:13 39.9 °F 36.4 °F 30.13 in Calm     87 % 0.00 in 0 W/m2
20:18 39.7 °F 36.2 °F 30.12 in Calm     87 % 0.00 in 0 W/m2
20:23 39.7 °F 36.2 °F 30.13 in WNW 3.0 mph 4.0 mph 87 % 0.00 in 0 W/m2
20:28 39.7 °F 36.2 °F 30.13 in WNW 3.0 mph 5.0 mph 87 % 0.00 in 0 W/m2
20:33 39.7 °F 36.2 °F 30.12 in WNW 5.0 mph 7.0 mph 87 % 0.00 in 0 W/m2
20:38 39.7 °F 36.5 °F 30.13 in WNW 6.0 mph 8.0 mph 88 % 0.00 in 0 W/m2
20:43 39.9 °F 36.4 °F 30.13 in WNW 5.0 mph 7.0 mph 87 % 0.00 in 0 W/m2
20:48 39.9 °F 36.4 °F 30.13 in WNW 5.0 mph 7.0 mph 87 % 0.00 in 0 W/m2
20:53 39.7 °F 36.2 °F 30.13 in WNW 5.0 mph 7.0 mph 87 % 0.00 in 0 W/m2
20:58 39.7 °F 36.2 °F 30.13 in WNW 5.0 mph 7.0 mph 87 % 0.00 in 0 W/m2
21:03 39.6 °F 36.0 °F 30.13 in WNW 6.0 mph 8.0 mph 87 % 0.00 in 0 W/m2
21:08 39.6 °F 36.0 °F 30.13 in WNW 4.0 mph 7.0 mph 87 % 0.00 in 0 W/m2
21:13 39.4 °F 35.5 °F 30.13 in WNW 2.0 mph 5.0 mph 86 % 0.00 in 0 W/m2
21:18 39.0 °F 35.2 °F 30.13 in WNW 3.0 mph 5.0 mph 86 % 0.00 in 0 W/m2
21:23 39.0 °F 35.2 °F 30.13 in WNW 4.0 mph 7.0 mph 86 % 0.00 in 0 W/m2
21:29 38.8 °F 35.0 °F 30.12 in WNW 4.0 mph 6.0 mph 86 % 0.00 in 0 W/m2
21:34 38.7 °F 34.8 °F 30.12 in WNW 4.0 mph 7.0 mph 86 % 0.00 in 0 W/m2
21:39 38.5 °F 34.7 °F 30.13 in WNW 4.0 mph 6.0 mph 86 % 0.00 in 0 W/m2
21:44 38.5 °F 34.7 °F 30.13 in WNW 3.0 mph 5.0 mph 86 % 0.00 in 0 W/m2
21:49 38.3 °F 34.8 °F 30.13 in NW 3.0 mph 6.0 mph 87 % 0.00 in 0 W/m2
21:54 38.1 °F 34.6 °F 30.13 in WNW 5.0 mph 8.0 mph 87 % 0.00 in 0 W/m2
21:59 38.3 °F 34.8 °F 30.13 in WNW 7.0 mph 10.0 mph 87 % 0.00 in 0 W/m2
22:04 38.5 °F 34.9 °F 30.13 in WNW 7.0 mph 10.0 mph 87 % 0.00 in 0 W/m2
22:09 38.7 °F 34.8 °F 30.13 in WNW 6.0 mph 7.0 mph 86 % 0.00 in 0 W/m2
22:14 38.5 °F 34.7 °F 30.13 in WNW 5.0 mph 7.0 mph 86 % 0.00 in 0 W/m2
22:19 38.5 °F 34.4 °F 30.13 in WNW 5.0 mph 7.0 mph 85 % 0.00 in 0 W/m2
22:24 38.5 °F 34.7 °F 30.13 in WNW 7.0 mph 9.0 mph 86 % 0.00 in 0 W/m2
22:29 38.5 °F 34.4 °F 30.13 in WNW 6.0 mph 9.0 mph 85 % 0.00 in 0 W/m2
22:34 38.5 °F 34.4 °F 30.13 in WNW 7.0 mph 11.0 mph 85 % 0.00 in 0 W/m2
22:39 38.7 °F 34.2 °F 30.13 in WNW 6.0 mph 10.0 mph 84 % 0.00 in 0 W/m2
22:44 38.7 °F 33.9 °F 30.12 in WNW 7.0 mph 11.0 mph 83 % 0.00 in 0 W/m2
22:49 38.7 °F 33.9 °F 30.13 in WNW 6.0 mph 9.0 mph 83 % 0.00 in 0 W/m2
22:54 38.8 °F 33.8 °F 30.13 in WNW 7.0 mph 8.0 mph 82 % 0.00 in 0 W/m2
22:59 38.8 °F 33.8 °F 30.13 in WNW 7.0 mph 9.0 mph 82 % 0.00 in 0 W/m2
23:04 38.7 °F 33.6 °F 30.13 in WNW 6.0 mph 10.0 mph 82 % 0.00 in 0 W/m2
23:09 38.7 °F 33.6 °F 30.13 in WNW 7.0 mph 10.0 mph 82 % 0.00 in 0 W/m2
23:14 38.7 °F 33.3 °F 30.13 in WNW 6.0 mph 10.0 mph 81 % 0.00 in 0 W/m2
23:19 38.7 °F 33.3 °F 30.14 in WNW 7.0 mph 9.0 mph 81 % 0.00 in 0 W/m2
23:24 38.7 °F 33.3 °F 30.14 in WNW 4.0 mph 7.0 mph 81 % 0.00 in 0 W/m2
23:29 38.5 °F 33.2 °F 30.14 in NW 5.0 mph 9.0 mph 81 % 0.00 in 0 W/m2
23:34 38.5 °F 33.2 °F 30.14 in NW 5.0 mph 7.0 mph 81 % 0.00 in 0 W/m2
23:39 38.3 °F 33.0 °F 30.14 in NW 5.0 mph 9.0 mph 81 % 0.00 in 0 W/m2
23:44 38.1 °F 32.8 °F 30.14 in NW 5.0 mph 8.0 mph 81 % 0.00 in 0 W/m2
23:49 38.1 °F 32.8 °F 30.14 in WNW 6.0 mph 8.0 mph 81 % 0.00 in 0 W/m2
23:54 37.9 °F 32.6 °F 30.14 in WNW 6.0 mph 9.0 mph 81 % 0.00 in 0 W/m2
23:59 37.9 °F 32.6 °F 30.14 in WNW 7.0 mph 10.0 mph 81 % 0.00 in 0 W/m2
Delerius-Weather
Compliments of Weather Underground - 2.25 mb

Data updates at regular intervals.